EPPOEPGD

Guest
Details From EPPO - Lawica
To EPGD - Lech Walesa
Flight Number -
Tags Generated
Created
Modified
Stats Distance 131 nm / 243 km
Max Altitude 0 ft / 0 m
Waypoints 2
Social Downloads 0
Likes 0
Share VATSIM

Download

Looking for another format? Having issues loading an existing format? Contact us
Advertisement - Login to hide

Notes

Generated

Route

EPPO EPGD

ID Type Via Altitude Latitude Longitude Leg Dist Tot Dist Heading (true) Name
O EPPO APT - 0 ft / 0 m 52.42494˚ 16.80609˚ - 0 nm - -
O EPGD APT - 0 ft / 0 m 54.38107˚ 18.45205˚ 131 nm 131 nm 26° / 27° -

Altitude Profile

Advertisement - Login to hide

EPPO

Details ICAO EPPO (POZ)
Name LAWICA
Region Poland
Timezone Europe/Warsaw (UTC+2.0)
Stats Elevation 308 ft / 94 m (AMSL)
Location 52.421566° 16.823549°
Runways 1
Magnetic Variation 4.794° E

METAR

EPPO 260830Z 18004KT 130V200 CAVOK 23/11 Q1023

Decode

TAF

TAF EPPO 260530Z 2606/2706 03002KT CAVOK TEMPO 2611/2620 BKN026CB PROB30 TEMPO 2612/2619 3000 TSRA BKN014CB TEMPO 2622/2706 1400 BR PROB40 TEMPO 2701/2706 0500 FG

Decode

Departure Runways

ID Width Length Bearing (true) Bearing (mag) Surface Threshold Offset Overrun Length
11 164 ft / 50 m 8,153 ft / 2,485 m 107.57° 102.78° Asphalt 0 ft / 0 m 0 ft / 0 m
29 164 ft / 50 m 8,153 ft / 2,485 m 287.59° 282.80° Asphalt 0 ft / 0 m 0 ft / 0 m

EPGD

Details ICAO EPGD (GDN)
Name LECH WALESA
Region Poland
Timezone Europe/Warsaw (UTC+2.0)
Stats Elevation 489 ft / 149 m (AMSL)
Location 54.376167° 18.471884°
Runways 1
Magnetic Variation 5.512° E

METAR

EPGD 260830Z 10006KT 070V130 9999 FEW023 20/15 Q1024

Decode

TAF

TAF TAF EPGD 260530Z 2606/2706 VRB02KT CAVOK BECMG 2609/2611 04010KT TEMPO 2609/2618 3000 TSRA BKN025CB BECMG 2620/2622 3000 BR BKN005 PROB30 2700/2706 0400 FG BKN001

Decode

Destination Runways

ID Width Length Bearing (true) Bearing (mag) Surface Threshold Offset Overrun Length
11 148 ft / 45 m 9,158 ft / 2,791 m 112.96° 107.45° Asphalt 0 ft / 0 m 0 ft / 0 m
29 148 ft / 45 m 9,158 ft / 2,791 m 293.00° 287.49° Asphalt 0 ft / 0 m 0 ft / 0 m

Approach Navaids

Runway Type Ident Frequency Range Bearing (true) Bearing (mag) Slope Elevation
29 Localiser IGDA 110.30 MHz 18 nm / 33 km 292.96° 287.45° - 489 ft / 149 m (AMSL)
29 Glidescope IGDA 110.30 MHz 10 nm / 19 km 292.98° 287.47° 2.90° 489 ft / 149 m (AMSL)
29 DME IGDA 110.30 MHz 18 nm / 33 km - - - 492 ft / 150 m (AMSL)

Popular Alternatives